sensor_id;sensor_type;location;lat;lon;timestamp;P1;durP1;ratioP1;P2;durP2;ratioP2
11791;SDS011;5953;52.372;9.918;2023-05-10T00:00:27;4.83;;;3.27;;
11791;SDS011;5953;52.372;9.918;2023-05-10T00:02:55;4.07;;;3.03;;
11791;SDS011;5953;52.372;9.918;2023-05-10T00:05:23;4.73;;;3.10;;
11791;SDS011;5953;52.372;9.918;2023-05-10T00:07:51;4.80;;;3.10;;
11791;SDS011;5953;52.372;9.918;2023-05-10T00:10:19;4.93;;;3.30;;
11791;SDS011;5953;52.372;9.918;2023-05-10T00:12:47;8.23;;;3.27;;
11791;SDS011;5953;52.372;9.918;2023-05-10T00:15:16;8.50;;;3.17;;
11791;SDS011;5953;52.372;9.918;2023-05-10T00:17:44;6.17;;;3.30;;
11791;SDS011;5953;52.372;9.918;2023-05-10T00:20:12;4.50;;;3.30;;
11791;SDS011;5953;52.372;9.918;2023-05-10T00:22:40;5.30;;;3.20;;
11791;SDS011;5953;52.372;9.918;2023-05-10T00:25:08;6.03;;;3.83;;
11791;SDS011;5953;52.372;9.918;2023-05-10T00:27:36;9.27;;;3.80;;
11791;SDS011;5953;52.372;9.918;2023-05-10T00:30:04;6.07;;;3.67;;
11791;SDS011;5953;52.372;9.918;2023-05-10T00:32:34;6.03;;;3.60;;
11791;SDS011;5953;52.372;9.918;2023-05-10T00:35:03;4.57;;;3.03;;
11791;SDS011;5953;52.372;9.918;2023-05-10T00:37:31;4.63;;;3.67;;
11791;SDS011;5953;52.372;9.918;2023-05-10T00:39:58;5.17;;;3.83;;
11791;SDS011;5953;52.372;9.918;2023-05-10T00:42:26;4.87;;;3.53;;
11791;SDS011;5953;52.372;9.918;2023-05-10T00:44:54;8.90;;;4.00;;
11791;SDS011;5953;52.372;9.918;2023-05-10T00:47:22;5.57;;;3.73;;
11791;SDS011;5953;52.372;9.918;2023-05-10T00:49:52;5.13;;;3.87;;
11791;SDS011;5953;52.372;9.918;2023-05-10T00:52:19;5.87;;;4.07;;
11791;SDS011;5953;52.372;9.918;2023-05-10T00:54:49;7.50;;;3.90;;
11791;SDS011;5953;52.372;9.918;2023-05-10T00:57:18;5.10;;;3.90;;
11791;SDS011;5953;52.372;9.918;2023-05-10T00:59:46;4.20;;;3.80;;
11791;SDS011;5953;52.372;9.918;2023-05-10T01:02:15;4.80;;;4.00;;
11791;SDS011;5953;52.372;9.918;2023-05-10T01:04:43;6.03;;;4.00;;
11791;SDS011;5953;52.372;9.918;2023-05-10T01:07:12;5.47;;;3.87;;
11791;SDS011;5953;52.372;9.918;2023-05-10T01:09:40;6.53;;;3.83;;
11791;SDS011;5953;52.372;9.918;2023-05-10T01:12:07;4.73;;;3.70;;
11791;SDS011;5953;52.372;9.918;2023-05-10T01:14:35;10.87;;;5.03;;
11791;SDS011;5953;52.372;9.918;2023-05-10T01:17:04;5.10;;;3.77;;
11791;SDS011;5953;52.372;9.918;2023-05-10T01:19:34;5.07;;;3.63;;
11791;SDS011;5953;52.372;9.918;2023-05-10T01:22:06;6.60;;;4.23;;
11791;SDS011;5953;52.372;9.918;2023-05-10T01:28:11;6.10;;;4.10;;
11791;SDS011;5953;52.372;9.918;2023-05-10T01:33:53;5.30;;;4.00;;
11791;SDS011;5953;52.372;9.918;2023-05-10T01:36:26;5.63;;;4.53;;
11791;SDS011;5953;52.372;9.918;2023-05-10T01:38:59;8.47;;;4.40;;
11791;SDS011;5953;52.372;9.918;2023-05-10T01:41:33;6.47;;;3.90;;
11791;SDS011;5953;52.372;9.918;2023-05-10T01:44:10;6.73;;;4.17;;
11791;SDS011;5953;52.372;9.918;2023-05-10T01:46:41;6.43;;;4.07;;
11791;SDS011;5953;52.372;9.918;2023-05-10T01:49:13;5.47;;;4.17;;
11791;SDS011;5953;52.372;9.918;2023-05-10T01:51:48;6.37;;;4.20;;
11791;SDS011;5953;52.372;9.918;2023-05-10T01:54:22;4.63;;;4.23;;
11791;SDS011;5953;52.372;9.918;2023-05-10T01:56:55;7.17;;;4.73;;
11791;SDS011;5953;52.372;9.918;2023-05-10T01:59:28;5.00;;;4.10;;
11791;SDS011;5953;52.372;9.918;2023-05-10T02:01:58;5.03;;;4.10;;
11791;SDS011;5953;52.372;9.918;2023-05-10T02:04:28;4.60;;;4.03;;
11791;SDS011;5953;52.372;9.918;2023-05-10T02:07:00;6.67;;;5.10;;
11791;SDS011;5953;52.372;9.918;2023-05-10T02:09:28;7.67;;;4.80;;
11791;SDS011;5953;52.372;9.918;2023-05-10T02:11:59;10.97;;;4.93;;
11791;SDS011;5953;52.372;9.918;2023-05-10T02:14:29;8.07;;;4.50;;
11791;SDS011;5953;52.372;9.918;2023-05-10T02:16:59;6.67;;;5.20;;
11791;SDS011;5953;52.372;9.918;2023-05-10T02:19:31;6.17;;;4.90;;
11791;SDS011;5953;52.372;9.918;2023-05-10T02:22:00;5.87;;;4.30;;
11791;SDS011;5953;52.372;9.918;2023-05-10T02:24:29;5.50;;;5.00;;
11791;SDS011;5953;52.372;9.918;2023-05-10T02:26:57;6.97;;;4.47;;
11791;SDS011;5953;52.372;9.918;2023-05-10T02:29:27;6.60;;;4.67;;
11791;SDS011;5953;52.372;9.918;2023-05-10T02:31:56;5.63;;;5.03;;
11791;SDS011;5953;52.372;9.918;2023-05-10T02:34:26;6.33;;;5.40;;
11791;SDS011;5953;52.372;9.918;2023-05-10T02:36:56;8.50;;;4.77;;
11791;SDS011;5953;52.372;9.918;2023-05-10T02:39:25;6.83;;;5.60;;
11791;SDS011;5953;52.372;9.918;2023-05-10T02:41:56;6.03;;;5.30;;
11791;SDS011;5953;52.372;9.918;2023-05-10T02:44:24;6.57;;;5.17;;
11791;SDS011;5953;52.372;9.918;2023-05-10T02:46:57;5.43;;;4.90;;
11791;SDS011;5953;52.372;9.918;2023-05-10T02:49:25;7.17;;;6.00;;
11791;SDS011;5953;52.372;9.918;2023-05-10T02:51:55;8.00;;;5.90;;
11791;SDS011;5953;52.372;9.918;2023-05-10T02:54:29;7.00;;;5.70;;
11791;SDS011;5953;52.372;9.918;2023-05-10T02:57:00;7.43;;;5.90;;
11791;SDS011;5953;52.372;9.918;2023-05-10T02:59:31;7.13;;;5.40;;
11791;SDS011;5953;52.372;9.918;2023-05-10T03:01:59;6.37;;;5.50;;
11791;SDS011;5953;52.372;9.918;2023-05-10T03:04:28;8.17;;;5.00;;
11791;SDS011;5953;52.372;9.918;2023-05-10T03:06:57;8.23;;;5.20;;
11791;SDS011;5953;52.372;9.918;2023-05-10T03:09:25;8.43;;;5.13;;
11791;SDS011;5953;52.372;9.918;2023-05-10T03:11:55;6.37;;;5.60;;
11791;SDS011;5953;52.372;9.918;2023-05-10T03:14:31;7.73;;;5.40;;
11791;SDS011;5953;52.372;9.918;2023-05-10T03:17:10;7.13;;;5.37;;
11791;SDS011;5953;52.372;9.918;2023-05-10T03:19:43;8.83;;;5.63;;
11791;SDS011;5953;52.372;9.918;2023-05-10T03:22:20;9.57;;;5.60;;
11791;SDS011;5953;52.372;9.918;2023-05-10T03:24:51;6.17;;;4.77;;
11791;SDS011;5953;52.372;9.918;2023-05-10T03:27:22;8.30;;;5.50;;
11791;SDS011;5953;52.372;9.918;2023-05-10T03:29:52;7.83;;;6.13;;
11791;SDS011;5953;52.372;9.918;2023-05-10T03:32:20;6.87;;;5.83;;
11791;SDS011;5953;52.372;9.918;2023-05-10T03:34:49;8.20;;;5.47;;
11791;SDS011;5953;52.372;9.918;2023-05-10T03:37:18;7.30;;;6.17;;
11791;SDS011;5953;52.372;9.918;2023-05-10T03:39:46;7.80;;;5.77;;
11791;SDS011;5953;52.372;9.918;2023-05-10T03:42:14;8.63;;;5.83;;
11791;SDS011;5953;52.372;9.918;2023-05-10T03:44:44;7.43;;;5.47;;
11791;SDS011;5953;52.372;9.918;2023-05-10T03:47:11;6.50;;;5.37;;
11791;SDS011;5953;52.372;9.918;2023-05-10T03:49:39;5.73;;;5.13;;
11791;SDS011;5953;52.372;9.918;2023-05-10T03:52:07;7.07;;;5.70;;
11791;SDS011;5953;52.372;9.918;2023-05-10T03:54:36;9.10;;;5.87;;
11791;SDS011;5953;52.372;9.918;2023-05-10T03:57:04;5.80;;;5.20;;
11791;SDS011;5953;52.372;9.918;2023-05-10T03:59:31;6.77;;;6.07;;
11791;SDS011;5953;52.372;9.918;2023-05-10T04:01:59;7.57;;;5.57;;
11791;SDS011;5953;52.372;9.918;2023-05-10T04:04:27;8.20;;;6.37;;
11791;SDS011;5953;52.372;9.918;2023-05-10T04:06:55;8.73;;;5.97;;
11791;SDS011;5953;52.372;9.918;2023-05-10T04:09:23;7.80;;;5.73;;
11791;SDS011;5953;52.372;9.918;2023-05-10T04:11:52;8.43;;;6.20;;
11791;SDS011;5953;52.372;9.918;2023-05-10T04:14:20;7.53;;;6.07;;
11791;SDS011;5953;52.372;9.918;2023-05-10T04:16:47;12.77;;;6.93;;
11791;SDS011;5953;52.372;9.918;2023-05-10T04:19:15;10.50;;;5.83;;
11791;SDS011;5953;52.372;9.918;2023-05-10T04:21:43;6.93;;;6.10;;
11791;SDS011;5953;52.372;9.918;2023-05-10T04:24:11;6.73;;;5.63;;
11791;SDS011;5953;52.372;9.918;2023-05-10T04:26:39;6.97;;;5.83;;
11791;SDS011;5953;52.372;9.918;2023-05-10T04:29:08;9.10;;;6.27;;
11791;SDS011;5953;52.372;9.918;2023-05-10T04:31:36;6.80;;;6.10;;
11791;SDS011;5953;52.372;9.918;2023-05-10T04:34:04;8.73;;;6.40;;
11791;SDS011;5953;52.372;9.918;2023-05-10T04:36:31;7.33;;;5.60;;
11791;SDS011;5953;52.372;9.918;2023-05-10T04:39:01;6.67;;;5.97;;
11791;SDS011;5953;52.372;9.918;2023-05-10T04:41:30;7.30;;;5.67;;
11791;SDS011;5953;52.372;9.918;2023-05-10T04:43:58;7.77;;;5.70;;
11791;SDS011;5953;52.372;9.918;2023-05-10T04:46:27;9.53;;;6.70;;
11791;SDS011;5953;52.372;9.918;2023-05-10T04:48:55;7.60;;;6.57;;
11791;SDS011;5953;52.372;9.918;2023-05-10T04:51:23;8.30;;;5.93;;
11791;SDS011;5953;52.372;9.918;2023-05-10T04:53:51;9.93;;;7.20;;
11791;SDS011;5953;52.372;9.918;2023-05-10T04:56:31;8.40;;;6.60;;
11791;SDS011;5953;52.372;9.918;2023-05-10T04:58:59;8.30;;;6.07;;
11791;SDS011;5953;52.372;9.918;2023-05-10T05:01:28;10.13;;;6.67;;
11791;SDS011;5953;52.372;9.918;2023-05-10T05:03:56;7.40;;;6.50;;
11791;SDS011;5953;52.372;9.918;2023-05-10T05:06:24;8.07;;;6.83;;
11791;SDS011;5953;52.372;9.918;2023-05-10T05:08:53;7.03;;;6.33;;
11791;SDS011;5953;52.372;9.918;2023-05-10T05:11:21;8.73;;;6.70;;
11791;SDS011;5953;52.372;9.918;2023-05-10T05:13:49;9.03;;;6.67;;
11791;SDS011;5953;52.372;9.918;2023-05-10T05:16:17;8.13;;;6.83;;
11791;SDS011;5953;52.372;9.918;2023-05-10T05:18:47;7.73;;;6.90;;
11791;SDS011;5953;52.372;9.918;2023-05-10T05:21:14;9.50;;;7.50;;
11791;SDS011;5953;52.372;9.918;2023-05-10T05:23:43;7.30;;;6.60;;
11791;SDS011;5953;52.372;9.918;2023-05-10T05:26:11;9.33;;;7.60;;
11791;SDS011;5953;52.372;9.918;2023-05-10T05:28:39;10.37;;;9.00;;
11791;SDS011;5953;52.372;9.918;2023-05-10T05:31:07;10.93;;;9.00;;
11791;SDS011;5953;52.372;9.918;2023-05-10T05:33:35;12.77;;;8.70;;
11791;SDS011;5953;52.372;9.918;2023-05-10T05:36:05;11.77;;;8.57;;
11791;SDS011;5953;52.372;9.918;2023-05-10T05:38:33;10.13;;;9.13;;
11791;SDS011;5953;52.372;9.918;2023-05-10T05:41:01;13.30;;;8.63;;
11791;SDS011;5953;52.372;9.918;2023-05-10T05:43:29;11.83;;;8.03;;
11791;SDS011;5953;52.372;9.918;2023-05-10T05:45:56;12.67;;;7.90;;
11791;SDS011;5953;52.372;9.918;2023-05-10T05:48:24;8.77;;;7.87;;
11791;SDS011;5953;52.372;9.918;2023-05-10T05:50:54;9.70;;;7.30;;
11791;SDS011;5953;52.372;9.918;2023-05-10T05:53:23;10.77;;;7.80;;
11791;SDS011;5953;52.372;9.918;2023-05-10T05:55:52;9.23;;;7.60;;
11791;SDS011;5953;52.372;9.918;2023-05-10T05:58:20;8.70;;;7.33;;
11791;SDS011;5953;52.372;9.918;2023-05-10T06:00:49;11.57;;;8.23;;
11791;SDS011;5953;52.372;9.918;2023-05-10T06:03:17;11.33;;;9.13;;
11791;SDS011;5953;52.372;9.918;2023-05-10T06:05:46;10.77;;;9.67;;
11791;SDS011;5953;52.372;9.918;2023-05-10T06:08:14;10.07;;;9.03;;
11791;SDS011;5953;52.372;9.918;2023-05-10T06:10:43;10.13;;;8.50;;
11791;SDS011;5953;52.372;9.918;2023-05-10T06:13:11;10.17;;;8.53;;
11791;SDS011;5953;52.372;9.918;2023-05-10T06:15:39;10.10;;;8.77;;
11791;SDS011;5953;52.372;9.918;2023-05-10T06:18:07;11.97;;;9.57;;
11791;SDS011;5953;52.372;9.918;2023-05-10T06:20:35;10.50;;;8.83;;
11791;SDS011;5953;52.372;9.918;2023-05-10T06:23:03;10.23;;;9.20;;
11791;SDS011;5953;52.372;9.918;2023-05-10T06:25:31;10.10;;;8.70;;
11791;SDS011;5953;52.372;9.918;2023-05-10T06:28:00;9.47;;;8.57;;
11791;SDS011;5953;52.372;9.918;2023-05-10T06:30:29;9.60;;;8.00;;
11791;SDS011;5953;52.372;9.918;2023-05-10T06:32:57;9.60;;;8.13;;
11791;SDS011;5953;52.372;9.918;2023-05-10T06:35:25;9.93;;;7.37;;
11791;SDS011;5953;52.372;9.918;2023-05-10T06:37:53;10.23;;;7.30;;
11791;SDS011;5953;52.372;9.918;2023-05-10T06:40:21;8.23;;;7.20;;
11791;SDS011;5953;52.372;9.918;2023-05-10T06:42:49;7.93;;;7.13;;
11791;SDS011;5953;52.372;9.918;2023-05-10T06:45:18;8.80;;;7.57;;
11791;SDS011;5953;52.372;9.918;2023-05-10T06:47:46;10.37;;;7.70;;
11791;SDS011;5953;52.372;9.918;2023-05-10T06:50:14;8.63;;;7.73;;
11791;SDS011;5953;52.372;9.918;2023-05-10T06:52:42;9.67;;;6.33;;
11791;SDS011;5953;52.372;9.918;2023-05-10T06:55:10;7.40;;;6.57;;
11791;SDS011;5953;52.372;9.918;2023-05-10T06:57:39;8.10;;;7.27;;
11791;SDS011;5953;52.372;9.918;2023-05-10T07:00:07;7.60;;;6.37;;
11791;SDS011;5953;52.372;9.918;2023-05-10T07:02:37;8.03;;;6.17;;
11791;SDS011;5953;52.372;9.918;2023-05-10T07:05:05;11.90;;;6.13;;
11791;SDS011;5953;52.372;9.918;2023-05-10T07:07:33;7.90;;;7.10;;
11791;SDS011;5953;52.372;9.918;2023-05-10T07:10:01;9.53;;;6.90;;
11791;SDS011;5953;52.372;9.918;2023-05-10T07:12:29;7.20;;;6.53;;
11791;SDS011;5953;52.372;9.918;2023-05-10T07:14:57;8.33;;;7.20;;
11791;SDS011;5953;52.372;9.918;2023-05-10T07:17:25;7.23;;;6.53;;
11791;SDS011;5953;52.372;9.918;2023-05-10T07:19:54;7.07;;;6.47;;
11791;SDS011;5953;52.372;9.918;2023-05-10T07:22:22;8.73;;;6.73;;
11791;SDS011;5953;52.372;9.918;2023-05-10T07:24:49;7.27;;;5.80;;
11791;SDS011;5953;52.372;9.918;2023-05-10T07:27:17;6.37;;;5.67;;
11791;SDS011;5953;52.372;9.918;2023-05-10T07:29:45;8.70;;;6.47;;
11791;SDS011;5953;52.372;9.918;2023-05-10T07:32:13;6.87;;;6.03;;
11791;SDS011;5953;52.372;9.918;2023-05-10T07:34:41;6.70;;;6.10;;
11791;SDS011;5953;52.372;9.918;2023-05-10T07:37:10;7.57;;;6.77;;
11791;SDS011;5953;52.372;9.918;2023-05-10T07:39:38;7.13;;;5.90;;
11791;SDS011;5953;52.372;9.918;2023-05-10T07:42:06;7.13;;;6.43;;
11791;SDS011;5953;52.372;9.918;2023-05-10T07:44:34;7.57;;;6.70;;
11791;SDS011;5953;52.372;9.918;2023-05-10T07:47:02;8.37;;;6.53;;
11791;SDS011;5953;52.372;9.918;2023-05-10T07:49:30;12.07;;;6.70;;
11791;SDS011;5953;52.372;9.918;2023-05-10T07:51:58;7.13;;;6.43;;
11791;SDS011;5953;52.372;9.918;2023-05-10T07:54:27;6.97;;;6.27;;
11791;SDS011;5953;52.372;9.918;2023-05-10T07:56:54;7.40;;;6.70;;
11791;SDS011;5953;52.372;9.918;2023-05-10T07:59:22;9.23;;;7.53;;
11791;SDS011;5953;52.372;9.918;2023-05-10T08:01:50;9.90;;;7.40;;
11791;SDS011;5953;52.372;9.918;2023-05-10T08:04:18;7.60;;;6.87;;
11791;SDS011;5953;52.372;9.918;2023-05-10T08:06:46;8.87;;;7.57;;
11791;SDS011;5953;52.372;9.918;2023-05-10T08:09:14;7.87;;;7.03;;
11791;SDS011;5953;52.372;9.918;2023-05-10T08:11:45;8.47;;;7.60;;
11791;SDS011;5953;52.372;9.918;2023-05-10T08:14:13;9.13;;;7.67;;
11791;SDS011;5953;52.372;9.918;2023-05-10T08:16:40;10.40;;;7.63;;
11791;SDS011;5953;52.372;9.918;2023-05-10T08:19:08;8.40;;;7.60;;
11791;SDS011;5953;52.372;9.918;2023-05-10T08:21:36;9.40;;;7.93;;
11791;SDS011;5953;52.372;9.918;2023-05-10T08:24:04;10.10;;;7.53;;
11791;SDS011;5953;52.372;9.918;2023-05-10T08:26:32;10.23;;;7.90;;
11791;SDS011;5953;52.372;9.918;2023-05-10T08:29:02;7.27;;;6.53;;
11791;SDS011;5953;52.372;9.918;2023-05-10T08:31:29;7.07;;;5.83;;
11791;SDS011;5953;52.372;9.918;2023-05-10T08:33:57;5.37;;;4.87;;
11791;SDS011;5953;52.372;9.918;2023-05-10T08:36:26;6.97;;;4.43;;
11791;SDS011;5953;52.372;9.918;2023-05-10T08:38:54;5.47;;;4.73;;
11791;SDS011;5953;52.372;9.918;2023-05-10T08:41:22;4.87;;;4.47;;
11791;SDS011;5953;52.372;9.918;2023-05-10T08:43:57;4.67;;;4.07;;
11791;SDS011;5953;52.372;9.918;2023-05-10T08:46:35;4.23;;;3.93;;
11791;SDS011;5953;52.372;9.918;2023-05-10T08:49:07;3.67;;;3.37;;
11791;SDS011;5953;52.372;9.918;2023-05-10T08:51:35;4.67;;;3.33;;
11791;SDS011;5953;52.372;9.918;2023-05-10T08:54:08;3.50;;;3.17;;
11791;SDS011;5953;52.372;9.918;2023-05-10T08:56:36;3.37;;;3.10;;
11791;SDS011;5953;52.372;9.918;2023-05-10T08:59:04;3.27;;;2.97;;
11791;SDS011;5953;52.372;9.918;2023-05-10T09:01:32;3.27;;;2.97;;
11791;SDS011;5953;52.372;9.918;2023-05-10T09:04:04;2.63;;;2.40;;
11791;SDS011;5953;52.372;9.918;2023-05-10T09:06:32;3.17;;;2.30;;
11791;SDS011;5953;52.372;9.918;2023-05-10T09:09:01;2.33;;;2.00;;
11791;SDS011;5953;52.372;9.918;2023-05-10T09:11:29;1.70;;;1.60;;
11791;SDS011;5953;52.372;9.918;2023-05-10T09:13:57;1.40;;;1.30;;
11791;SDS011;5953;52.372;9.918;2023-05-10T09:16:25;1.60;;;1.40;;
11791;SDS011;5953;52.372;9.918;2023-05-10T09:18:55;1.80;;;1.70;;
11791;SDS011;5953;52.372;9.918;2023-05-10T09:21:24;1.60;;;1.50;;
11791;SDS011;5953;52.372;9.918;2023-05-10T09:23:56;2.30;;;2.10;;
11791;SDS011;5953;52.372;9.918;2023-05-10T09:26:23;2.23;;;2.13;;
11791;SDS011;5953;52.372;9.918;2023-05-10T09:28:52;2.30;;;2.10;;
11791;SDS011;5953;52.372;9.918;2023-05-10T09:31:21;2.30;;;2.10;;
11791;SDS011;5953;52.372;9.918;2023-05-10T09:33:50;2.07;;;1.87;;
11791;SDS011;5953;52.372;9.918;2023-05-10T09:36:19;3.50;;;2.20;;
11791;SDS011;5953;52.372;9.918;2023-05-10T09:38:48;2.17;;;1.97;;
11791;SDS011;5953;52.372;9.918;2023-05-10T09:41:18;4.07;;;2.30;;
11791;SDS011;5953;52.372;9.918;2023-05-10T09:43:47;2.47;;;2.13;;
11791;SDS011;5953;52.372;9.918;2023-05-10T09:46:15;3.43;;;2.27;;
11791;SDS011;5953;52.372;9.918;2023-05-10T09:48:44;2.47;;;2.20;;
11791;SDS011;5953;52.372;9.918;2023-05-10T09:51:19;2.87;;;2.37;;
11791;SDS011;5953;52.372;9.918;2023-05-10T09:53:47;2.43;;;2.23;;
11791;SDS011;5953;52.372;9.918;2023-05-10T09:59:04;3.03;;;2.40;;
11791;SDS011;5953;52.372;9.918;2023-05-10T10:01:32;4.30;;;2.87;;
11791;SDS011;5953;52.372;9.918;2023-05-10T10:04:02;4.60;;;2.53;;
11791;SDS011;5953;52.372;9.918;2023-05-10T10:06:36;2.60;;;2.40;;
11791;SDS011;5953;52.372;9.918;2023-05-10T10:09:06;3.23;;;2.73;;
11791;SDS011;5953;52.372;9.918;2023-05-10T10:11:34;3.83;;;2.80;;
11791;SDS011;5953;52.372;9.918;2023-05-10T10:14:03;3.57;;;2.80;;
11791;SDS011;5953;52.372;9.918;2023-05-10T10:16:32;2.97;;;2.67;;
11791;SDS011;5953;52.372;9.918;2023-05-10T10:19:00;4.40;;;2.53;;
11791;SDS011;5953;52.372;9.918;2023-05-10T10:21:28;3.13;;;2.67;;
11791;SDS011;5953;52.372;9.918;2023-05-10T10:23:59;3.13;;;2.80;;
11791;SDS011;5953;52.372;9.918;2023-05-10T10:26:26;3.47;;;3.00;;
11791;SDS011;5953;52.372;9.918;2023-05-10T10:28:57;4.60;;;2.27;;
11791;SDS011;5953;52.372;9.918;2023-05-10T10:31:32;3.10;;;2.57;;
11791;SDS011;5953;52.372;9.918;2023-05-10T10:34:05;4.67;;;3.17;;
11791;SDS011;5953;52.372;9.918;2023-05-10T10:36:39;5.27;;;2.90;;
11791;SDS011;5953;52.372;9.918;2023-05-10T10:39:12;3.63;;;3.33;;
11791;SDS011;5953;52.372;9.918;2023-05-10T10:41:48;4.10;;;3.37;;
11791;SDS011;5953;52.372;9.918;2023-05-10T10:44:24;3.27;;;2.97;;
11791;SDS011;5953;52.372;9.918;2023-05-10T10:47:07;3.63;;;3.33;;
11791;SDS011;5953;52.372;9.918;2023-05-10T10:49:43;3.97;;;3.67;;
11791;SDS011;5953;52.372;9.918;2023-05-10T10:52:20;3.53;;;3.23;;
11791;SDS011;5953;52.372;9.918;2023-05-10T10:54:51;3.63;;;3.33;;
11791;SDS011;5953;52.372;9.918;2023-05-10T10:57:20;3.67;;;3.37;;
11791;SDS011;5953;52.372;9.918;2023-05-10T10:59:48;4.13;;;3.37;;
11791;SDS011;5953;52.372;9.918;2023-05-10T11:02:42;3.73;;;3.43;;
11791;SDS011;5953;52.372;9.918;2023-05-10T11:05:34;5.00;;;3.90;;
11791;SDS011;5953;52.372;9.918;2023-05-10T11:08:08;4.17;;;3.77;;
11791;SDS011;5953;52.372;9.918;2023-05-10T11:10:48;3.70;;;3.40;;
11791;SDS011;5953;52.372;9.918;2023-05-10T11:13:27;4.00;;;3.67;;
11791;SDS011;5953;52.372;9.918;2023-05-10T11:15:56;3.73;;;3.07;;
11791;SDS011;5953;52.372;9.918;2023-05-10T11:18:25;3.73;;;3.37;;
11791;SDS011;5953;52.372;9.918;2023-05-10T11:20:56;4.70;;;3.63;;
11791;SDS011;5953;52.372;9.918;2023-05-10T11:23:29;5.77;;;3.80;;
11791;SDS011;5953;52.372;9.918;2023-05-10T11:25:59;6.07;;;3.40;;
11791;SDS011;5953;52.372;9.918;2023-05-10T11:28:28;4.67;;;3.63;;
11791;SDS011;5953;52.372;9.918;2023-05-10T11:30:55;3.70;;;3.27;;
11791;SDS011;5953;52.372;9.918;2023-05-10T11:33:24;6.07;;;3.00;;
11791;SDS011;5953;52.372;9.918;2023-05-10T11:35:52;4.00;;;3.07;;
11791;SDS011;5953;52.372;9.918;2023-05-10T11:38:20;3.50;;;3.03;;
11791;SDS011;5953;52.372;9.918;2023-05-10T11:40:50;3.80;;;2.80;;
11791;SDS011;5953;52.372;9.918;2023-05-10T11:43:20;3.17;;;2.77;;
11791;SDS011;5953;52.372;9.918;2023-05-10T11:45:54;3.00;;;2.70;;
11791;SDS011;5953;52.372;9.918;2023-05-10T11:48:22;4.47;;;3.10;;
11791;SDS011;5953;52.372;9.918;2023-05-10T11:50:50;3.43;;;2.87;;
11791;SDS011;5953;52.372;9.918;2023-05-10T11:53:19;3.07;;;2.60;;
11791;SDS011;5953;52.372;9.918;2023-05-10T11:55:50;3.63;;;2.97;;
11791;SDS011;5953;52.372;9.918;2023-05-10T11:58:18;5.13;;;3.00;;
11791;SDS011;5953;52.372;9.918;2023-05-10T12:00:48;4.07;;;2.90;;
11791;SDS011;5953;52.372;9.918;2023-05-10T12:03:17;4.50;;;3.10;;
11791;SDS011;5953;52.372;9.918;2023-05-10T12:05:45;5.73;;;3.63;;
11791;SDS011;5953;52.372;9.918;2023-05-10T12:08:13;4.93;;;3.30;;
11791;SDS011;5953;52.372;9.918;2023-05-10T12:10:42;3.30;;;3.00;;
11791;SDS011;5953;52.372;9.918;2023-05-10T12:13:10;4.20;;;3.43;;
11791;SDS011;5953;52.372;9.918;2023-05-10T12:15:40;3.53;;;3.23;;
11791;SDS011;5953;52.372;9.918;2023-05-10T12:18:10;6.53;;;3.03;;
11791;SDS011;5953;52.372;9.918;2023-05-10T12:20:39;4.83;;;3.93;;
11791;SDS011;5953;52.372;9.918;2023-05-10T12:23:08;5.70;;;3.53;;
11791;SDS011;5953;52.372;9.918;2023-05-10T12:25:37;5.60;;;4.30;;
11791;SDS011;5953;52.372;9.918;2023-05-10T12:28:06;5.33;;;4.00;;
11791;SDS011;5953;52.372;9.918;2023-05-10T12:30:35;4.97;;;3.67;;
11791;SDS011;5953;52.372;9.918;2023-05-10T12:33:07;3.97;;;3.57;;
11791;SDS011;5953;52.372;9.918;2023-05-10T12:35:44;6.53;;;4.53;;
11791;SDS011;5953;52.372;9.918;2023-05-10T12:38:25;4.80;;;4.30;;
11791;SDS011;5953;52.372;9.918;2023-05-10T12:40:56;5.03;;;4.17;;
11791;SDS011;5953;52.372;9.918;2023-05-10T12:43:24;6.33;;;4.57;;
11791;SDS011;5953;52.372;9.918;2023-05-10T12:45:52;6.20;;;3.93;;
11791;SDS011;5953;52.372;9.918;2023-05-10T12:48:21;4.97;;;4.00;;
11791;SDS011;5953;52.372;9.918;2023-05-10T12:50:49;4.23;;;3.40;;
11791;SDS011;5953;52.372;9.918;2023-05-10T12:53:17;5.43;;;3.70;;
11791;SDS011;5953;52.372;9.918;2023-05-10T12:55:46;4.50;;;4.03;;
11791;SDS011;5953;52.372;9.918;2023-05-10T12:58:13;5.20;;;3.90;;
11791;SDS011;5953;52.372;9.918;2023-05-10T13:01:00;4.43;;;3.30;;
11791;SDS011;5953;52.372;9.918;2023-05-10T13:03:30;3.17;;;2.87;;
11791;SDS011;5953;52.372;9.918;2023-05-10T13:05:58;4.03;;;3.60;;
11791;SDS011;5953;52.372;9.918;2023-05-10T13:08:26;4.03;;;3.37;;
11791;SDS011;5953;52.372;9.918;2023-05-10T13:10:55;3.93;;;3.40;;
11791;SDS011;5953;52.372;9.918;2023-05-10T13:13:23;5.03;;;3.43;;
11791;SDS011;5953;52.372;9.918;2023-05-10T13:15:51;3.37;;;2.93;;
11791;SDS011;5953;52.372;9.918;2023-05-10T13:18:19;4.80;;;3.90;;
11791;SDS011;5953;52.372;9.918;2023-05-10T13:20:48;3.90;;;3.50;;
11791;SDS011;5953;52.372;9.918;2023-05-10T13:23:16;4.93;;;3.80;;
11791;SDS011;5953;52.372;9.918;2023-05-10T13:25:44;4.93;;;4.00;;
11791;SDS011;5953;52.372;9.918;2023-05-10T13:28:12;4.13;;;3.50;;
11791;SDS011;5953;52.372;9.918;2023-05-10T13:30:39;3.90;;;3.50;;
11791;SDS011;5953;52.372;9.918;2023-05-10T13:33:07;4.03;;;3.60;;
11791;SDS011;5953;52.372;9.918;2023-05-10T13:35:35;4.20;;;3.47;;
11791;SDS011;5953;52.372;9.918;2023-05-10T13:38:05;4.20;;;3.47;;
11791;SDS011;5953;52.372;9.918;2023-05-10T13:40:34;3.23;;;2.93;;
11791;SDS011;5953;52.372;9.918;2023-05-10T13:43:03;4.13;;;2.97;;
11791;SDS011;5953;52.372;9.918;2023-05-10T13:45:31;3.17;;;2.87;;
11791;SDS011;5953;52.372;9.918;2023-05-10T13:47:59;2.60;;;2.40;;
11791;SDS011;5953;52.372;9.918;2023-05-10T13:50:27;3.00;;;2.70;;
11791;SDS011;5953;52.372;9.918;2023-05-10T13:52:55;2.93;;;2.07;;
11791;SDS011;5953;52.372;9.918;2023-05-10T13:55:24;3.90;;;2.87;;
11791;SDS011;5953;52.372;9.918;2023-05-10T13:57:52;4.20;;;3.30;;
11791;SDS011;5953;52.372;9.918;2023-05-10T14:00:20;3.17;;;2.87;;
11791;SDS011;5953;52.372;9.918;2023-05-10T14:02:48;4.30;;;2.80;;
11791;SDS011;5953;52.372;9.918;2023-05-10T14:05:16;3.57;;;3.27;;
11791;SDS011;5953;52.372;9.918;2023-05-10T14:07:50;3.63;;;2.70;;
11791;SDS011;5953;52.372;9.918;2023-05-10T14:10:18;5.03;;;2.87;;
11791;SDS011;5953;52.372;9.918;2023-05-10T14:12:47;2.50;;;2.30;;
11791;SDS011;5953;52.372;9.918;2023-05-10T14:15:15;2.83;;;1.73;;
11791;SDS011;5953;52.372;9.918;2023-05-10T14:17:44;2.70;;;2.50;;
11791;SDS011;5953;52.372;9.918;2023-05-10T14:20:12;2.80;;;2.00;;
11791;SDS011;5953;52.372;9.918;2023-05-10T14:22:40;2.53;;;1.83;;
11791;SDS011;5953;52.372;9.918;2023-05-10T14:25:08;2.83;;;2.40;;
11791;SDS011;5953;52.372;9.918;2023-05-10T14:27:36;4.00;;;2.43;;
11791;SDS011;5953;52.372;9.918;2023-05-10T14:30:06;2.30;;;2.10;;
11791;SDS011;5953;52.372;9.918;2023-05-10T14:32:35;2.33;;;1.80;;
11791;SDS011;5953;52.372;9.918;2023-05-10T14:35:04;3.70;;;2.60;;
11791;SDS011;5953;52.372;9.918;2023-05-10T14:37:36;4.33;;;2.40;;
11791;SDS011;5953;52.372;9.918;2023-05-10T14:40:04;2.60;;;2.20;;
11791;SDS011;5953;52.372;9.918;2023-05-10T14:42:34;3.17;;;2.20;;
11791;SDS011;5953;52.372;9.918;2023-05-10T14:45:01;3.37;;;2.27;;
11791;SDS011;5953;52.372;9.918;2023-05-10T14:47:31;5.53;;;3.70;;
11791;SDS011;5953;52.372;9.918;2023-05-10T14:49:59;8.00;;;5.57;;
11791;SDS011;5953;52.372;9.918;2023-05-10T14:52:26;8.70;;;6.13;;
11791;SDS011;5953;52.372;9.918;2023-05-10T14:54:54;6.70;;;5.90;;
11791;SDS011;5953;52.372;9.918;2023-05-10T14:57:23;8.97;;;6.47;;
11791;SDS011;5953;52.372;9.918;2023-05-10T14:59:51;8.57;;;6.53;;
11791;SDS011;5953;52.372;9.918;2023-05-10T15:02:19;9.27;;;7.17;;
11791;SDS011;5953;52.372;9.918;2023-05-10T15:04:49;8.90;;;7.23;;
11791;SDS011;5953;52.372;9.918;2023-05-10T15:07:18;7.17;;;6.40;;
11791;SDS011;5953;52.372;9.918;2023-05-10T15:09:46;8.33;;;6.07;;
11791;SDS011;5953;52.372;9.918;2023-05-10T15:12:13;8.23;;;6.67;;
11791;SDS011;5953;52.372;9.918;2023-05-10T15:14:41;6.73;;;6.03;;
11791;SDS011;5953;52.372;9.918;2023-05-10T15:17:09;7.27;;;6.50;;
11791;SDS011;5953;52.372;9.918;2023-05-10T15:19:37;9.73;;;6.77;;
11791;SDS011;5953;52.372;9.918;2023-05-10T15:22:06;6.77;;;6.00;;